sensor_id;sensor_type;location;lat;lon;timestamp;pressure;altitude;pressure_sealevel;temperature;humidity
15674;BME280;7937;48.090;16.212;2023-04-27T00:02:34;98013.28;;;2.83;76.59
15674;BME280;7937;48.090;16.212;2023-04-27T00:05:38;98001.50;;;2.79;76.62
15674;BME280;7937;48.090;16.212;2023-04-27T00:08:41;98009.47;;;2.86;76.84
15674;BME280;7937;48.090;16.212;2023-04-27T00:11:43;98006.84;;;2.86;76.42
15674;BME280;7937;48.090;16.212;2023-04-27T00:14:45;98019.81;;;2.88;75.58
15674;BME280;7937;48.090;16.212;2023-04-27T00:17:47;98005.47;;;2.90;76.23
15674;BME280;7937;48.090;16.212;2023-04-27T00:20:49;98002.75;;;2.83;76.61
15674;BME280;7937;48.090;16.212;2023-04-27T00:23:53;98015.09;;;2.83;76.69
15674;BME280;7937;48.090;16.212;2023-04-27T00:26:56;98007.22;;;2.83;76.56
15674;BME280;7937;48.090;16.212;2023-04-27T00:29:58;98003.13;;;2.80;76.38
15674;BME280;7937;48.090;16.212;2023-04-27T00:33:00;98006.31;;;2.91;76.00
15674;BME280;7937;48.090;16.212;2023-04-27T00:36:04;97993.84;;;2.84;76.35
15674;BME280;7937;48.090;16.212;2023-04-27T00:39:06;98001.75;;;2.84;76.53
15674;BME280;7937;48.090;16.212;2023-04-27T00:42:10;97997.69;;;2.82;76.33
15674;BME280;7937;48.090;16.212;2023-04-27T00:45:16;98001.31;;;2.81;76.24
15674;BME280;7937;48.090;16.212;2023-04-27T00:48:18;97997.84;;;2.80;76.36
15674;BME280;7937;48.090;16.212;2023-04-27T00:51:21;98002.31;;;2.80;75.91
15674;BME280;7937;48.090;16.212;2023-04-27T00:54:29;98002.31;;;2.80;76.51
15674;BME280;7937;48.090;16.212;2023-04-27T00:57:32;97995.22;;;2.80;76.49
15674;BME280;7937;48.090;16.212;2023-04-27T01:05:09;97971.16;;;2.62;76.54
15674;BME280;7937;48.090;16.212;2023-04-27T01:08:11;97990.16;;;2.79;76.57
15674;BME280;7937;48.090;16.212;2023-04-27T01:11:14;97988.72;;;2.76;76.52
15674;BME280;7937;48.090;16.212;2023-04-27T01:14:16;97990.91;;;2.73;76.81
15674;BME280;7937;48.090;16.212;2023-04-27T01:17:19;97989.63;;;2.69;77.00
15674;BME280;7937;48.090;16.212;2023-04-27T01:20:21;98001.69;;;2.63;77.19
15674;BME280;7937;48.090;16.212;2023-04-27T01:23:23;97989.09;;;2.58;76.96
15674;BME280;7937;48.090;16.212;2023-04-27T01:26:25;97978.88;;;2.49;76.89
15674;BME280;7937;48.090;16.212;2023-04-27T01:29:27;97991.47;;;2.53;76.23
15674;BME280;7937;48.090;16.212;2023-04-27T01:32:30;97997.28;;;2.49;76.86
15674;BME280;7937;48.090;16.212;2023-04-27T01:35:32;97994.72;;;2.41;77.06
15674;BME280;7937;48.090;16.212;2023-04-27T01:38:34;98002.06;;;2.30;77.39
15674;BME280;7937;48.090;16.212;2023-04-27T01:41:37;98003.69;;;2.17;78.21
15674;BME280;7937;48.090;16.212;2023-04-27T01:44:39;98008.31;;;2.15;77.99
15674;BME280;7937;48.090;16.212;2023-04-27T01:47:42;98008.84;;;2.10;77.89
15674;BME280;7937;48.090;16.212;2023-04-27T01:50:45;97997.59;;;2.01;78.19
15674;BME280;7937;48.090;16.212;2023-04-27T01:53:47;98000.41;;;2.00;78.26
15674;BME280;7937;48.090;16.212;2023-04-27T01:56:50;97995.22;;;1.92;78.60
15674;BME280;7937;48.090;16.212;2023-04-27T01:59:52;98003.03;;;1.85;78.99
15674;BME280;7937;48.090;16.212;2023-04-27T02:02:55;98000.94;;;1.80;79.36
15674;BME280;7937;48.090;16.212;2023-04-27T02:06:02;97996.41;;;1.74;79.29
15674;BME280;7937;48.090;16.212;2023-04-27T02:09:04;98002.66;;;1.73;79.13
15674;BME280;7937;48.090;16.212;2023-04-27T02:12:06;98006.63;;;1.69;79.07
15674;BME280;7937;48.090;16.212;2023-04-27T02:15:09;98001.91;;;1.65;78.62
15674;BME280;7937;48.090;16.212;2023-04-27T02:18:12;98009.25;;;1.69;78.55
15674;BME280;7937;48.090;16.212;2023-04-27T02:21:16;98006.56;;;1.54;79.03
15674;BME280;7937;48.090;16.212;2023-04-27T02:24:18;98006.28;;;1.49;79.28
15674;BME280;7937;48.090;16.212;2023-04-27T02:27:20;98007.81;;;1.44;79.40
15674;BME280;7937;48.090;16.212;2023-04-27T02:30:23;98010.66;;;1.34;79.90
15674;BME280;7937;48.090;16.212;2023-04-27T02:33:25;98005.47;;;1.26;79.46
15674;BME280;7937;48.090;16.212;2023-04-27T02:36:27;98010.75;;;1.18;79.56
15674;BME280;7937;48.090;16.212;2023-04-27T02:39:29;98009.50;;;1.14;79.38
15674;BME280;7937;48.090;16.212;2023-04-27T02:42:32;98011.97;;;1.07;79.68
15674;BME280;7937;48.090;16.212;2023-04-27T02:45:37;98012.03;;;0.99;80.05
15674;BME280;7937;48.090;16.212;2023-04-27T02:48:39;98014.19;;;0.95;80.39
15674;BME280;7937;48.090;16.212;2023-04-27T02:51:41;98008.47;;;0.92;80.00
15674;BME280;7937;48.090;16.212;2023-04-27T02:54:43;97999.69;;;0.76;80.13
15674;BME280;7937;48.090;16.212;2023-04-27T02:57:46;98012.09;;;0.83;79.96
15674;BME280;7937;48.090;16.212;2023-04-27T03:00:53;98015.25;;;0.78;80.14
15674;BME280;7937;48.090;16.212;2023-04-27T03:03:56;98021.16;;;0.72;80.40
15674;BME280;7937;48.090;16.212;2023-04-27T03:06:58;98018.88;;;0.69;80.28
15674;BME280;7937;48.090;16.212;2023-04-27T03:10:00;98022.00;;;0.72;80.02
15674;BME280;7937;48.090;16.212;2023-04-27T03:13:03;98018.56;;;0.72;80.27
15674;BME280;7937;48.090;16.212;2023-04-27T03:16:10;98021.50;;;0.69;80.33
15674;BME280;7937;48.090;16.212;2023-04-27T03:19:13;98020.69;;;0.68;80.39
15674;BME280;7937;48.090;16.212;2023-04-27T03:22:15;98018.72;;;0.70;80.54
15674;BME280;7937;48.090;16.212;2023-04-27T03:25:17;98026.91;;;0.75;80.16
15674;BME280;7937;48.090;16.212;2023-04-27T03:28:20;98024.75;;;0.79;79.86
15674;BME280;7937;48.090;16.212;2023-04-27T03:31:22;98029.81;;;0.81;79.82
15674;BME280;7937;48.090;16.212;2023-04-27T03:34:24;98028.19;;;0.80;79.21
15674;BME280;7937;48.090;16.212;2023-04-27T03:37:26;98030.66;;;0.73;79.44
15674;BME280;7937;48.090;16.212;2023-04-27T03:40:30;98036.13;;;0.63;80.16
15674;BME280;7937;48.090;16.212;2023-04-27T03:43:32;98030.75;;;0.57;80.32
15674;BME280;7937;48.090;16.212;2023-04-27T03:46:36;98030.09;;;0.55;80.33
15674;BME280;7937;48.090;16.212;2023-04-27T03:49:38;98036.16;;;0.55;80.39
15674;BME280;7937;48.090;16.212;2023-04-27T03:52:41;98005.56;;;0.39;80.40
15674;BME280;7937;48.090;16.212;2023-04-27T03:55:44;98042.72;;;0.59;80.36
15674;BME280;7937;48.090;16.212;2023-04-27T03:58:46;98039.59;;;0.56;80.56
15674;BME280;7937;48.090;16.212;2023-04-27T04:01:52;98033.19;;;0.58;80.08
15674;BME280;7937;48.090;16.212;2023-04-27T04:04:55;98035.81;;;0.58;80.83
15674;BME280;7937;48.090;16.212;2023-04-27T04:07:57;98038.44;;;0.58;81.27
15674;BME280;7937;48.090;16.212;2023-04-27T04:11:01;98033.50;;;0.63;81.05
15674;BME280;7937;48.090;16.212;2023-04-27T04:14:04;98038.91;;;0.70;80.93
15674;BME280;7937;48.090;16.212;2023-04-27T04:17:08;98046.19;;;0.83;80.99
15674;BME280;7937;48.090;16.212;2023-04-27T04:20:14;98035.03;;;0.89;81.26
15674;BME280;7937;48.090;16.212;2023-04-27T04:23:16;98042.38;;;0.93;81.39
15674;BME280;7937;48.090;16.212;2023-04-27T04:26:18;98047.25;;;1.05;81.03
15674;BME280;7937;48.090;16.212;2023-04-27T04:29:21;98036.88;;;1.11;80.85
15674;BME280;7937;48.090;16.212;2023-04-27T04:32:24;97998.78;;;0.92;80.86
15674;BME280;7937;48.090;16.212;2023-04-27T04:35:32;98045.81;;;1.25;80.13
15674;BME280;7937;48.090;16.212;2023-04-27T04:38:34;98041.63;;;1.39;78.71
15674;BME280;7937;48.090;16.212;2023-04-27T04:41:36;98042.84;;;1.51;77.93
15674;BME280;7937;48.090;16.212;2023-04-27T04:44:41;98046.25;;;1.60;77.74
15674;BME280;7937;48.090;16.212;2023-04-27T04:47:43;98034.41;;;1.64;76.97
15674;BME280;7937;48.090;16.212;2023-04-27T04:50:46;98048.41;;;1.79;76.67
15674;BME280;7937;48.090;16.212;2023-04-27T04:53:48;98042.91;;;1.89;76.82
15674;BME280;7937;48.090;16.212;2023-04-27T04:56:50;98039.38;;;1.96;76.44
15674;BME280;7937;48.090;16.212;2023-04-27T04:59:52;98043.22;;;2.09;76.34
15674;BME280;7937;48.090;16.212;2023-04-27T05:02:55;98041.94;;;2.19;76.41
15674;BME280;7937;48.090;16.212;2023-04-27T05:05:57;98047.28;;;2.26;75.86
15674;BME280;7937;48.090;16.212;2023-04-27T05:08:59;98052.00;;;2.30;75.82
15674;BME280;7937;48.090;16.212;2023-04-27T05:12:02;98046.41;;;2.33;74.99
15674;BME280;7937;48.090;16.212;2023-04-27T05:15:05;98046.69;;;2.39;74.97
15674;BME280;7937;48.090;16.212;2023-04-27T05:18:07;98051.88;;;2.47;74.02
15674;BME280;7937;48.090;16.212;2023-04-27T05:21:13;98054.78;;;2.52;74.58
15674;BME280;7937;48.090;16.212;2023-04-27T05:24:16;98048.59;;;2.59;74.40
15674;BME280;7937;48.090;16.212;2023-04-27T05:27:18;98056.59;;;2.66;74.19
15674;BME280;7937;48.090;16.212;2023-04-27T05:30:20;98057.47;;;2.73;74.01
15674;BME280;7937;48.090;16.212;2023-04-27T05:33:22;98062.66;;;2.81;74.06
15674;BME280;7937;48.090;16.212;2023-04-27T05:36:25;98055.91;;;2.94;74.15
15674;BME280;7937;48.090;16.212;2023-04-27T05:39:29;98060.94;;;3.10;74.51
15674;BME280;7937;48.090;16.212;2023-04-27T05:42:31;98060.19;;;3.31;74.43
15674;BME280;7937;48.090;16.212;2023-04-27T05:45:38;98066.19;;;3.61;74.87
15674;BME280;7937;48.090;16.212;2023-04-27T05:48:40;98061.16;;;3.87;74.20
15674;BME280;7937;48.090;16.212;2023-04-27T05:51:42;98069.53;;;4.19;73.44
15674;BME280;7937;48.090;16.212;2023-04-27T05:54:48;98066.47;;;4.44;72.77
15674;BME280;7937;48.090;16.212;2023-04-27T05:57:51;98078.34;;;4.68;72.66
15674;BME280;7937;48.090;16.212;2023-04-27T06:01:08;98070.97;;;4.91;72.34
15674;BME280;7937;48.090;16.212;2023-04-27T06:04:10;98072.88;;;5.10;72.64
15674;BME280;7937;48.090;16.212;2023-04-27T06:07:13;98069.94;;;5.33;72.94
15674;BME280;7937;48.090;16.212;2023-04-27T06:10:16;98070.81;;;5.54;73.11
15674;BME280;7937;48.090;16.212;2023-04-27T06:13:19;98036.66;;;5.52;73.33
15674;BME280;7937;48.090;16.212;2023-04-27T06:16:22;98046.66;;;5.83;72.74
15674;BME280;7937;48.090;16.212;2023-04-27T06:19:24;98076.19;;;6.20;71.68
15674;BME280;7937;48.090;16.212;2023-04-27T06:22:27;98079.66;;;6.40;69.13
15674;BME280;7937;48.090;16.212;2023-04-27T06:25:29;98093.69;;;6.61;68.09
15674;BME280;7937;48.090;16.212;2023-04-27T06:28:32;98087.13;;;6.77;63.44
15674;BME280;7937;48.090;16.212;2023-04-27T06:31:34;98084.81;;;6.93;60.90
15674;BME280;7937;48.090;16.212;2023-04-27T06:34:37;98087.63;;;7.12;58.18
15674;BME280;7937;48.090;16.212;2023-04-27T06:37:39;98091.81;;;7.33;55.43
15674;BME280;7937;48.090;16.212;2023-04-27T06:40:42;98092.94;;;7.57;55.09
15674;BME280;7937;48.090;16.212;2023-04-27T06:43:44;98093.47;;;7.72;52.44
15674;BME280;7937;48.090;16.212;2023-04-27T06:46:46;98088.09;;;7.85;51.28
15674;BME280;7937;48.090;16.212;2023-04-27T06:49:48;98086.50;;;8.02;47.65
15674;BME280;7937;48.090;16.212;2023-04-27T06:52:50;98094.31;;;8.22;47.99
15674;BME280;7937;48.090;16.212;2023-04-27T06:55:54;98097.84;;;8.48;47.69
15674;BME280;7937;48.090;16.212;2023-04-27T06:59:00;98098.97;;;8.59;45.17
15674;BME280;7937;48.090;16.212;2023-04-27T07:02:02;98099.44;;;8.74;47.62
15674;BME280;7937;48.090;16.212;2023-04-27T07:05:04;98104.63;;;8.87;46.06
15674;BME280;7937;48.090;16.212;2023-04-27T07:08:06;98095.75;;;8.93;44.85
15674;BME280;7937;48.090;16.212;2023-04-27T07:11:09;98091.63;;;8.97;44.53
15674;BME280;7937;48.090;16.212;2023-04-27T07:14:12;98082.91;;;9.09;42.27
15674;BME280;7937;48.090;16.212;2023-04-27T07:17:14;98088.19;;;8.97;44.94
15674;BME280;7937;48.090;16.212;2023-04-27T07:20:16;98093.25;;;8.98;45.11
15674;BME280;7937;48.090;16.212;2023-04-27T07:23:19;98087.50;;;9.01;42.99
15674;BME280;7937;48.090;16.212;2023-04-27T07:26:21;98085.66;;;9.02;42.03
15674;BME280;7937;48.090;16.212;2023-04-27T07:29:25;98088.16;;;9.15;43.35
15674;BME280;7937;48.090;16.212;2023-04-27T07:32:29;98097.03;;;9.27;44.01
15674;BME280;7937;48.090;16.212;2023-04-27T07:35:32;98090.56;;;9.35;41.27
15674;BME280;7937;48.090;16.212;2023-04-27T07:38:34;98086.59;;;9.26;40.75
15674;BME280;7937;48.090;16.212;2023-04-27T07:41:36;98093.75;;;9.25;40.98
15674;BME280;7937;48.090;16.212;2023-04-27T07:44:38;98096.91;;;9.52;40.71
15674;BME280;7937;48.090;16.212;2023-04-27T07:47:41;98090.72;;;9.40;39.46
15674;BME280;7937;48.090;16.212;2023-04-27T07:50:44;98087.88;;;9.53;40.22
15674;BME280;7937;48.090;16.212;2023-04-27T07:53:47;98092.44;;;9.65;39.89
15674;BME280;7937;48.090;16.212;2023-04-27T07:56:49;98095.41;;;9.87;39.46
15674;BME280;7937;48.090;16.212;2023-04-27T07:59:51;98093.44;;;9.82;39.35
15674;BME280;7937;48.090;16.212;2023-04-27T08:02:53;98093.94;;;9.91;39.47
15674;BME280;7937;48.090;16.212;2023-04-27T08:05:56;98092.91;;;10.03;40.99
15674;BME280;7937;48.090;16.212;2023-04-27T08:08:59;98091.66;;;10.06;39.72
15674;BME280;7937;48.090;16.212;2023-04-27T08:12:02;98094.47;;;10.23;39.62
15674;BME280;7937;48.090;16.212;2023-04-27T08:15:05;98096.22;;;10.29;37.55
15674;BME280;7937;48.090;16.212;2023-04-27T08:18:08;98086.19;;;10.31;38.59
15674;BME280;7937;48.090;16.212;2023-04-27T08:21:10;98088.38;;;10.46;37.62
15674;BME280;7937;48.090;16.212;2023-04-27T08:24:12;98093.25;;;10.49;36.81
15674;BME280;7937;48.090;16.212;2023-04-27T08:27:15;98082.94;;;10.52;37.47
15674;BME280;7937;48.090;16.212;2023-04-27T08:30:17;98096.59;;;10.68;37.12
15674;BME280;7937;48.090;16.212;2023-04-27T08:33:19;98093.25;;;10.61;36.38
15674;BME280;7937;48.090;16.212;2023-04-27T08:36:21;98077.25;;;10.37;37.10
15674;BME280;7937;48.090;16.212;2023-04-27T08:39:25;98090.00;;;10.47;37.09
15674;BME280;7937;48.090;16.212;2023-04-27T08:42:27;98099.63;;;10.59;37.92
15674;BME280;7937;48.090;16.212;2023-04-27T08:45:31;98094.75;;;10.92;37.20
15674;BME280;7937;48.090;16.212;2023-04-27T08:48:34;98100.44;;;10.95;37.60
15674;BME280;7937;48.090;16.212;2023-04-27T08:51:36;98097.06;;;11.00;37.72
15674;BME280;7937;48.090;16.212;2023-04-27T08:54:38;98098.91;;;10.99;38.45
15674;BME280;7937;48.090;16.212;2023-04-27T08:57:40;98104.47;;;10.98;38.93
15674;BME280;7937;48.090;16.212;2023-04-27T09:00:43;98100.88;;;10.92;37.96
15674;BME280;7937;48.090;16.212;2023-04-27T09:03:46;98092.06;;;10.92;37.18
15674;BME280;7937;48.090;16.212;2023-04-27T09:06:49;98099.94;;;10.98;39.60
15674;BME280;7937;48.090;16.212;2023-04-27T09:10:01;98102.13;;;11.25;39.79
15674;BME280;7937;48.090;16.212;2023-04-27T09:13:04;98086.97;;;11.42;38.11
15674;BME280;7937;48.090;16.212;2023-04-27T09:16:07;98090.47;;;11.71;38.39
15674;BME280;7937;48.090;16.212;2023-04-27T09:19:09;98094.84;;;11.89;38.00
15674;BME280;7937;48.090;16.212;2023-04-27T09:22:12;98083.53;;;12.16;36.41
15674;BME280;7937;48.090;16.212;2023-04-27T09:25:30;98081.84;;;12.26;35.34
15674;BME280;7937;48.090;16.212;2023-04-27T09:28:36;98087.09;;;12.04;37.38
15674;BME280;7937;48.090;16.212;2023-04-27T09:31:38;98084.28;;;12.28;39.04
15674;BME280;7937;48.090;16.212;2023-04-27T09:34:41;98083.41;;;12.22;37.39
15674;BME280;7937;48.090;16.212;2023-04-27T09:37:43;98072.47;;;12.24;36.47
15674;BME280;7937;48.090;16.212;2023-04-27T09:40:45;98073.75;;;12.04;35.38
15674;BME280;7937;48.090;16.212;2023-04-27T09:43:47;98063.94;;;11.93;35.80
15674;BME280;7937;48.090;16.212;2023-04-27T09:46:50;98074.72;;;11.98;35.78
15674;BME280;7937;48.090;16.212;2023-04-27T09:49:53;98077.13;;;11.71;36.13
15674;BME280;7937;48.090;16.212;2023-04-27T09:52:56;98072.59;;;11.83;35.91
15674;BME280;7937;48.090;16.212;2023-04-27T09:56:12;98070.34;;;11.92;36.21
15674;BME280;7937;48.090;16.212;2023-04-27T10:02:41;98066.94;;;11.68;37.16
15674;BME280;7937;48.090;16.212;2023-04-27T10:09:34;98058.53;;;11.88;37.69
15674;BME280;7937;48.090;16.212;2023-04-27T10:12:37;98052.47;;;12.09;38.59
15674;BME280;7937;48.090;16.212;2023-04-27T10:15:39;98055.78;;;12.17;37.67
15674;BME280;7937;48.090;16.212;2023-04-27T10:18:55;98024.94;;;12.26;39.30
15674;BME280;7937;48.090;16.212;2023-04-27T10:21:59;98051.66;;;12.43;36.56
15674;BME280;7937;48.090;16.212;2023-04-27T10:25:18;98054.50;;;12.19;36.37
15674;BME280;7937;48.090;16.212;2023-04-27T10:28:22;98044.63;;;12.20;36.40
15674;BME280;7937;48.090;16.212;2023-04-27T10:31:28;98044.13;;;11.89;37.01
15674;BME280;7937;48.090;16.212;2023-04-27T10:34:33;98051.78;;;11.85;37.21
15674;BME280;7937;48.090;16.212;2023-04-27T10:37:38;98048.88;;;11.87;37.00
15674;BME280;7937;48.090;16.212;2023-04-27T10:40:59;98036.59;;;12.03;37.90
15674;BME280;7937;48.090;16.212;2023-04-27T10:44:16;98042.59;;;12.44;38.90
15674;BME280;7937;48.090;16.212;2023-04-27T10:47:18;98035.84;;;12.41;35.33
15674;BME280;7937;48.090;16.212;2023-04-27T10:50:21;98041.53;;;12.45;35.68
15674;BME280;7937;48.090;16.212;2023-04-27T10:53:24;98039.06;;;12.60;35.74
15674;BME280;7937;48.090;16.212;2023-04-27T10:56:27;98034.13;;;12.69;36.08
15674;BME280;7937;48.090;16.212;2023-04-27T10:59:30;98033.44;;;12.78;35.55
15674;BME280;7937;48.090;16.212;2023-04-27T11:02:32;98036.06;;;12.95;37.40
15674;BME280;7937;48.090;16.212;2023-04-27T11:05:34;98028.94;;;13.01;34.88
15674;BME280;7937;48.090;16.212;2023-04-27T11:08:43;98030.47;;;13.18;34.67
15674;BME280;7937;48.090;16.212;2023-04-27T11:11:46;98029.09;;;12.72;35.10
15674;BME280;7937;48.090;16.212;2023-04-27T11:14:48;98024.75;;;12.66;34.59
15674;BME280;7937;48.090;16.212;2023-04-27T11:17:51;98033.84;;;12.87;35.50
15674;BME280;7937;48.090;16.212;2023-04-27T11:21:11;98035.06;;;12.79;34.54
15674;BME280;7937;48.090;16.212;2023-04-27T11:24:13;98034.84;;;12.64;35.25
15674;BME280;7937;48.090;16.212;2023-04-27T11:27:16;98039.66;;;12.62;36.16
15674;BME280;7937;48.090;16.212;2023-04-27T11:30:22;98023.81;;;12.38;35.51
15674;BME280;7937;48.090;16.212;2023-04-27T11:33:26;98035.72;;;12.70;36.20
15674;BME280;7937;48.090;16.212;2023-04-27T11:36:28;98033.44;;;12.78;34.45
15674;BME280;7937;48.090;16.212;2023-04-27T11:39:35;98032.72;;;12.83;34.50
15674;BME280;7937;48.090;16.212;2023-04-27T11:42:38;98040.06;;;12.93;35.65
15674;BME280;7937;48.090;16.212;2023-04-27T11:45:44;98037.88;;;13.11;36.64
15674;BME280;7937;48.090;16.212;2023-04-27T11:48:46;98033.72;;;12.99;33.71
15674;BME280;7937;48.090;16.212;2023-04-27T11:51:48;98027.84;;;12.80;35.13
15674;BME280;7937;48.090;16.212;2023-04-27T11:54:53;98028.22;;;12.88;36.06
15674;BME280;7937;48.090;16.212;2023-04-27T12:16:20;98017.22;;;12.85;34.99
15674;BME280;7937;48.090;16.212;2023-04-27T12:19:26;98011.31;;;12.83;34.90
15674;BME280;7937;48.090;16.212;2023-04-27T12:22:28;98008.09;;;12.81;34.89
15674;BME280;7937;48.090;16.212;2023-04-27T12:25:31;98014.59;;;12.68;33.66
15674;BME280;7937;48.090;16.212;2023-04-27T12:28:33;98010.25;;;12.62;34.61
15674;BME280;7937;48.090;16.212;2023-04-27T12:31:35;98013.66;;;12.57;33.10
15674;BME280;7937;48.090;16.212;2023-04-27T12:34:37;98002.91;;;12.52;33.72
15674;BME280;7937;48.090;16.212;2023-04-27T12:37:40;98005.19;;;12.65;32.51
15674;BME280;7937;48.090;16.212;2023-04-27T12:40:43;98007.66;;;12.67;34.12
15674;BME280;7937;48.090;16.212;2023-04-27T12:43:45;98004.03;;;13.00;33.65
15674;BME280;7937;48.090;16.212;2023-04-27T12:46:48;98000.66;;;13.10;35.21
15674;BME280;7937;48.090;16.212;2023-04-27T12:49:50;98004.44;;;13.31;33.05
15674;BME280;7937;48.090;16.212;2023-04-27T12:52:52;97983.72;;;12.77;33.57
15674;BME280;7937;48.090;16.212;2023-04-27T12:55:55;98006.66;;;12.95;33.52
15674;BME280;7937;48.090;16.212;2023-04-27T12:58:58;98007.78;;;12.77;33.72
15674;BME280;7937;48.090;16.212;2023-04-27T13:02:05;97997.44;;;12.64;33.70
15674;BME280;7937;48.090;16.212;2023-04-27T13:05:08;97995.25;;;12.61;34.40
15674;BME280;7937;48.090;16.212;2023-04-27T13:08:12;97998.38;;;12.75;34.39
15674;BME280;7937;48.090;16.212;2023-04-27T13:11:14;97993.91;;;12.80;35.81
15674;BME280;7937;48.090;16.212;2023-04-27T13:14:17;97999.94;;;12.93;35.75
15674;BME280;7937;48.090;16.212;2023-04-27T13:17:19;98004.88;;;13.01;33.40
15674;BME280;7937;48.090;16.212;2023-04-27T13:20:21;98009.03;;;12.91;33.92
15674;BME280;7937;48.090;16.212;2023-04-27T13:23:24;98002.69;;;12.98;33.74
15674;BME280;7937;48.090;16.212;2023-04-27T13:26:27;98003.22;;;13.00;35.03
15674;BME280;7937;48.090;16.212;2023-04-27T13:29:29;98000.13;;;13.08;34.87
15674;BME280;7937;48.090;16.212;2023-04-27T13:41:41;97991.00;;;13.80;33.86
15674;BME280;7937;48.090;16.212;2023-04-27T13:44:43;97997.91;;;14.08;31.70
15674;BME280;7937;48.090;16.212;2023-04-27T13:47:45;97994.50;;;14.17;31.77
15674;BME280;7937;48.090;16.212;2023-04-27T13:50:47;97988.31;;;13.80;30.80
15674;BME280;7937;48.090;16.212;2023-04-27T13:53:49;97986.94;;;13.77;32.32
15674;BME280;7937;48.090;16.212;2023-04-27T13:56:52;97978.16;;;13.82;33.01
15674;BME280;7937;48.090;16.212;2023-04-27T13:59:55;97993.53;;;13.97;31.00
15674;BME280;7937;48.090;16.212;2023-04-27T14:02:59;97993.88;;;13.73;30.51
15674;BME280;7937;48.090;16.212;2023-04-27T14:06:02;97988.31;;;13.53;30.26
15674;BME280;7937;48.090;16.212;2023-04-27T14:09:04;97991.09;;;13.36;31.91
15674;BME280;7937;48.090;16.212;2023-04-27T14:12:07;97980.59;;;13.56;31.83
15674;BME280;7937;48.090;16.212;2023-04-27T14:15:10;97977.56;;;13.75;30.90
15674;BME280;7937;48.090;16.212;2023-04-27T14:18:16;97973.25;;;13.74;31.54
15674;BME280;7937;48.090;16.212;2023-04-27T14:21:20;97982.91;;;13.75;32.01
15674;BME280;7937;48.090;16.212;2023-04-27T14:24:25;97979.22;;;13.81;32.00
15674;BME280;7937;48.090;16.212;2023-04-27T14:27:27;97990.72;;;13.81;32.25
15674;BME280;7937;48.090;16.212;2023-04-27T14:30:30;97996.31;;;13.75;31.97
15674;BME280;7937;48.090;16.212;2023-04-27T14:33:32;97993.06;;;13.73;31.70
15674;BME280;7937;48.090;16.212;2023-04-27T14:36:34;97995.00;;;13.50;33.27
15674;BME280;7937;48.090;16.212;2023-04-27T14:39:36;97988.44;;;13.36;34.69
15674;BME280;7937;48.090;16.212;2023-04-27T14:42:38;97980.31;;;13.26;35.74
15674;BME280;7937;48.090;16.212;2023-04-27T14:45:40;97986.59;;;13.20;33.04
15674;BME280;7937;48.090;16.212;2023-04-27T14:48:56;97988.97;;;13.38;33.51
15674;BME280;7937;48.090;16.212;2023-04-27T14:51:58;97990.16;;;13.47;33.84
15674;BME280;7937;48.090;16.212;2023-04-27T14:55:04;97986.66;;;13.47;33.64
15674;BME280;7937;48.090;16.212;2023-04-27T14:58:07;97986.66;;;13.47;34.74
15674;BME280;7937;48.090;16.212;2023-04-27T15:01:09;97993.09;;;13.78;33.47
15674;BME280;7937;48.090;16.212;2023-04-27T15:04:11;97983.97;;;13.74;32.24
15674;BME280;7937;48.090;16.212;2023-04-27T15:07:13;97999.06;;;13.58;32.33
15674;BME280;7937;48.090;16.212;2023-04-27T15:10:16;97996.78;;;13.45;33.76
15674;BME280;7937;48.090;16.212;2023-04-27T15:13:18;97995.59;;;13.57;34.07
15674;BME280;7937;48.090;16.212;2023-04-27T15:16:20;97995.06;;;13.55;32.84
15674;BME280;7937;48.090;16.212;2023-04-27T15:19:22;98001.00;;;13.35;33.38
15674;BME280;7937;48.090;16.212;2023-04-27T15:22:24;97996.75;;;13.39;33.18
15674;BME280;7937;48.090;16.212;2023-04-27T15:25:28;97980.31;;;13.26;34.46
15674;BME280;7937;48.090;16.212;2023-04-27T15:28:30;97995.09;;;13.33;33.38
15674;BME280;7937;48.090;16.212;2023-04-27T15:31:34;97986.69;;;13.25;34.09
15674;BME280;7937;48.090;16.212;2023-04-27T15:34:36;97974.28;;;13.18;33.68
15674;BME280;7937;48.090;16.212;2023-04-27T15:37:39;97982.41;;;13.02;38.21
15674;BME280;7937;48.090;16.212;2023-04-27T15:40:41;97983.16;;;12.97;35.21
15674;BME280;7937;48.090;16.212;2023-04-27T15:43:43;97974.13;;;13.03;34.10
15674;BME280;7937;48.090;16.212;2023-04-27T15:46:45;97974.50;;;13.12;34.60
15674;BME280;7937;48.090;16.212;2023-04-27T15:49:47;97984.50;;;13.00;37.85
15674;BME280;7937;48.090;16.212;2023-04-27T15:52:58;97981.66;;;12.84;36.65
15674;BME280;7937;48.090;16.212;2023-04-27T15:56:00;97980.75;;;12.96;35.56
15674;BME280;7937;48.090;16.212;2023-04-27T15:59:03;97977.31;;;12.78;37.91
15674;BME280;7937;48.090;16.212;2023-04-27T16:02:05;97980.22;;;12.77;35.66
15674;BME280;7937;48.090;16.212;2023-04-27T16:05:08;97975.06;;;12.92;35.09
15674;BME280;7937;48.090;16.212;2023-04-27T16:08:10;97981.19;;;12.71;38.80
15674;BME280;7937;48.090;16.212;2023-04-27T16:11:13;97975.44;;;12.57;36.89
15674;BME280;7937;48.090;16.212;2023-04-27T16:14:15;97976.19;;;12.52;38.45
15674;BME280;7937;48.090;16.212;2023-04-27T16:17:17;97966.41;;;12.24;39.13
15674;BME280;7937;48.090;16.212;2023-04-27T16:20:19;97970.09;;;12.18;38.63
15674;BME280;7937;48.090;16.212;2023-04-27T16:23:21;97974.25;;;12.31;39.69
15674;BME280;7937;48.090;16.212;2023-04-27T16:26:25;97949.78;;;12.00;39.91
15674;BME280;7937;48.090;16.212;2023-04-27T16:29:28;97973.16;;;12.27;37.77
15674;BME280;7937;48.090;16.212;2023-04-27T16:32:31;97939.69;;;12.02;38.97
15674;BME280;7937;48.090;16.212;2023-04-27T16:35:36;97978.09;;;12.18;38.15
15674;BME280;7937;48.090;16.212;2023-04-27T16:38:38;97983.25;;;12.25;38.04
15674;BME280;7937;48.090;16.212;2023-04-27T16:41:40;97984.31;;;12.24;38.50
15674;BME280;7937;48.090;16.212;2023-04-27T16:44:42;97988.84;;;12.06;41.58
15674;BME280;7937;48.090;16.212;2023-04-27T16:47:44;97974.34;;;11.69;42.90
15674;BME280;7937;48.090;16.212;2023-04-27T16:50:46;97990.41;;;11.57;45.09
15674;BME280;7937;48.090;16.212;2023-04-27T16:53:48;97989.41;;;11.46;43.67
15674;BME280;7937;48.090;16.212;2023-04-27T16:56:51;97991.25;;;11.74;41.13